sensor_id;sensor_type;location;lat;lon;timestamp;P1;durP1;ratioP1;P2;durP2;ratioP2
36725;SDS011;44936;52.086;5.150;2022-07-24T00:01:22;5.30;;;2.37;;
36725;SDS011;44936;52.086;5.150;2022-07-24T00:03:48;5.25;;;2.55;;
36725;SDS011;44936;52.086;5.150;2022-07-24T00:06:13;4.67;;;2.30;;
36725;SDS011;44936;52.086;5.150;2022-07-24T00:08:38;4.73;;;2.50;;
36725;SDS011;44936;52.086;5.150;2022-07-24T00:11:05;6.70;;;2.60;;
36725;SDS011;44936;52.086;5.150;2022-07-24T00:13:30;5.27;;;2.47;;
36725;SDS011;44936;52.086;5.150;2022-07-24T00:15:55;7.53;;;3.00;;
36725;SDS011;44936;52.086;5.150;2022-07-24T00:18:21;5.35;;;2.72;;
36725;SDS011;44936;52.086;5.150;2022-07-24T00:20:46;4.53;;;2.55;;
36725;SDS011;44936;52.086;5.150;2022-07-24T00:23:11;7.47;;;3.17;;
36725;SDS011;44936;52.086;5.150;2022-07-24T00:25:37;6.35;;;2.80;;
36725;SDS011;44936;52.086;5.150;2022-07-24T00:28:02;4.38;;;2.80;;
36725;SDS011;44936;52.086;5.150;2022-07-24T00:30:27;5.53;;;2.90;;
36725;SDS011;44936;52.086;5.150;2022-07-24T00:32:53;7.80;;;2.77;;
36725;SDS011;44936;52.086;5.150;2022-07-24T00:35:18;5.95;;;3.22;;
36725;SDS011;44936;52.086;5.150;2022-07-24T00:37:44;7.82;;;3.10;;
36725;SDS011;44936;52.086;5.150;2022-07-24T00:40:11;7.38;;;3.10;;
36725;SDS011;44936;52.086;5.150;2022-07-24T00:42:36;6.82;;;3.08;;
36725;SDS011;44936;52.086;5.150;2022-07-24T00:45:02;5.63;;;3.20;;
36725;SDS011;44936;52.086;5.150;2022-07-24T00:47:27;5.15;;;3.03;;
36725;SDS011;44936;52.086;5.150;2022-07-24T00:49:52;8.60;;;3.20;;
36725;SDS011;44936;52.086;5.150;2022-07-24T00:52:17;6.73;;;3.30;;
36725;SDS011;44936;52.086;5.150;2022-07-24T00:54:43;7.70;;;3.40;;
36725;SDS011;44936;52.086;5.150;2022-07-24T00:57:08;6.90;;;3.60;;
36725;SDS011;44936;52.086;5.150;2022-07-24T00:59:33;6.03;;;3.13;;
36725;SDS011;44936;52.086;5.150;2022-07-24T01:01:58;6.97;;;3.80;;
36725;SDS011;44936;52.086;5.150;2022-07-24T01:04:24;8.70;;;4.07;;
36725;SDS011;44936;52.086;5.150;2022-07-24T01:06:49;7.70;;;3.50;;
36725;SDS011;44936;52.086;5.150;2022-07-24T01:09:14;8.63;;;3.50;;
36725;SDS011;44936;52.086;5.150;2022-07-24T01:11:41;7.47;;;3.70;;
36725;SDS011;44936;52.086;5.150;2022-07-24T01:14:06;7.80;;;3.50;;
36725;SDS011;44936;52.086;5.150;2022-07-24T01:16:32;8.25;;;3.67;;
36725;SDS011;44936;52.086;5.150;2022-07-24T01:18:57;9.27;;;3.72;;
36725;SDS011;44936;52.086;5.150;2022-07-24T01:21:23;8.15;;;3.80;;
36725;SDS011;44936;52.086;5.150;2022-07-24T01:23:48;8.47;;;4.07;;
36725;SDS011;44936;52.086;5.150;2022-07-24T01:26:14;9.63;;;4.17;;
36725;SDS011;44936;52.086;5.150;2022-07-24T01:28:45;8.38;;;3.47;;
36725;SDS011;44936;52.086;5.150;2022-07-24T01:31:10;8.32;;;3.25;;
36725;SDS011;44936;52.086;5.150;2022-07-24T01:33:38;9.87;;;3.97;;
36725;SDS011;44936;52.086;5.150;2022-07-24T01:36:03;8.00;;;3.50;;
36725;SDS011;44936;52.086;5.150;2022-07-24T01:38:29;7.22;;;3.72;;
36725;SDS011;44936;52.086;5.150;2022-07-24T01:40:54;8.33;;;3.23;;
36725;SDS011;44936;52.086;5.150;2022-07-24T01:43:19;8.13;;;3.53;;
36725;SDS011;44936;52.086;5.150;2022-07-24T01:45:44;10.27;;;3.83;;
36725;SDS011;44936;52.086;5.150;2022-07-24T01:48:09;7.10;;;3.47;;
36725;SDS011;44936;52.086;5.150;2022-07-24T01:50:36;8.45;;;3.90;;
36725;SDS011;44936;52.086;5.150;2022-07-24T01:53:01;10.07;;;3.77;;
36725;SDS011;44936;52.086;5.150;2022-07-24T01:55:27;8.48;;;3.78;;
36725;SDS011;44936;52.086;5.150;2022-07-24T01:57:58;7.47;;;3.73;;
36725;SDS011;44936;52.086;5.150;2022-07-24T02:00:25;7.90;;;3.75;;
36725;SDS011;44936;52.086;5.150;2022-07-24T02:02:50;10.40;;;4.00;;
36725;SDS011;44936;52.086;5.150;2022-07-24T02:05:16;9.32;;;3.78;;
36725;SDS011;44936;52.086;5.150;2022-07-24T02:07:42;8.67;;;3.57;;
36725;SDS011;44936;52.086;5.150;2022-07-24T02:10:07;8.15;;;3.88;;
36725;SDS011;44936;52.086;5.150;2022-07-24T02:12:33;10.07;;;4.00;;
36725;SDS011;44936;52.086;5.150;2022-07-24T02:14:58;6.23;;;3.40;;
36725;SDS011;44936;52.086;5.150;2022-07-24T02:17:23;8.40;;;4.23;;
36725;SDS011;44936;52.086;5.150;2022-07-24T02:19:48;8.37;;;4.10;;
36725;SDS011;44936;52.086;5.150;2022-07-24T02:22:14;9.90;;;4.43;;
36725;SDS011;44936;52.086;5.150;2022-07-24T02:24:39;7.60;;;4.05;;
36725;SDS011;44936;52.086;5.150;2022-07-24T02:27:04;8.07;;;3.87;;
36725;SDS011;44936;52.086;5.150;2022-07-24T02:29:29;8.80;;;3.87;;
36725;SDS011;44936;52.086;5.150;2022-07-24T02:31:55;9.87;;;3.83;;
36725;SDS011;44936;52.086;5.150;2022-07-24T02:34:20;7.60;;;3.73;;
36725;SDS011;44936;52.086;5.150;2022-07-24T02:36:45;10.67;;;4.17;;
36725;SDS011;44936;52.086;5.150;2022-07-24T02:39:10;7.85;;;3.95;;
36725;SDS011;44936;52.086;5.150;2022-07-24T02:41:35;9.53;;;4.27;;
36725;SDS011;44936;52.086;5.150;2022-07-24T02:44:01;9.13;;;4.30;;
36725;SDS011;44936;52.086;5.150;2022-07-24T02:46:26;8.85;;;3.95;;
36725;SDS011;44936;52.086;5.150;2022-07-24T02:48:51;8.57;;;4.07;;
36725;SDS011;44936;52.086;5.150;2022-07-24T02:51:17;11.23;;;4.17;;
36725;SDS011;44936;52.086;5.150;2022-07-24T02:53:42;10.00;;;4.10;;
36725;SDS011;44936;52.086;5.150;2022-07-24T02:56:07;10.03;;;4.13;;
36725;SDS011;44936;52.086;5.150;2022-07-24T02:58:33;9.77;;;4.40;;
36725;SDS011;44936;52.086;5.150;2022-07-24T03:00:58;13.63;;;4.83;;
36725;SDS011;44936;52.086;5.150;2022-07-24T03:03:23;9.30;;;4.20;;
36725;SDS011;44936;52.086;5.150;2022-07-24T03:05:49;9.73;;;3.97;;
36725;SDS011;44936;52.086;5.150;2022-07-24T03:08:14;10.55;;;4.30;;
36725;SDS011;44936;52.086;5.150;2022-07-24T03:10:39;9.13;;;4.20;;
36725;SDS011;44936;52.086;5.150;2022-07-24T03:13:05;10.63;;;5.00;;
36725;SDS011;44936;52.086;5.150;2022-07-24T03:15:30;11.77;;;5.00;;
36725;SDS011;44936;52.086;5.150;2022-07-24T03:17:56;9.02;;;4.28;;
36725;SDS011;44936;52.086;5.150;2022-07-24T03:20:22;10.43;;;4.47;;
36725;SDS011;44936;52.086;5.150;2022-07-24T03:22:47;11.73;;;4.75;;
36725;SDS011;44936;52.086;5.150;2022-07-24T03:25:12;10.93;;;4.60;;
36725;SDS011;44936;52.086;5.150;2022-07-24T03:27:38;10.63;;;5.07;;
36725;SDS011;44936;52.086;5.150;2022-07-24T03:30:04;11.20;;;4.30;;
36725;SDS011;44936;52.086;5.150;2022-07-24T03:32:29;10.45;;;4.50;;
36725;SDS011;44936;52.086;5.150;2022-07-24T03:34:55;10.40;;;4.73;;
36725;SDS011;44936;52.086;5.150;2022-07-24T03:37:20;12.37;;;5.13;;
36725;SDS011;44936;52.086;5.150;2022-07-24T03:39:45;11.70;;;4.93;;
36725;SDS011;44936;52.086;5.150;2022-07-24T03:42:10;10.67;;;4.70;;
36725;SDS011;44936;52.086;5.150;2022-07-24T03:44:35;12.60;;;5.10;;
36725;SDS011;44936;52.086;5.150;2022-07-24T03:47:01;12.97;;;5.90;;
36725;SDS011;44936;52.086;5.150;2022-07-24T03:49:27;16.00;;;5.50;;
36725;SDS011;44936;52.086;5.150;2022-07-24T03:51:52;11.93;;;5.40;;
36725;SDS011;44936;52.086;5.150;2022-07-24T03:54:17;13.00;;;5.40;;
36725;SDS011;44936;52.086;5.150;2022-07-24T03:56:43;15.77;;;5.37;;
36725;SDS011;44936;52.086;5.150;2022-07-24T03:59:08;13.75;;;5.25;;
36725;SDS011;44936;52.086;5.150;2022-07-24T04:01:33;11.60;;;5.40;;
36725;SDS011;44936;52.086;5.150;2022-07-24T04:03:58;13.13;;;5.43;;
36725;SDS011;44936;52.086;5.150;2022-07-24T04:06:29;13.38;;;5.85;;
36725;SDS011;44936;52.086;5.150;2022-07-24T04:08:54;13.85;;;5.60;;
36725;SDS011;44936;52.086;5.150;2022-07-24T04:11:19;12.07;;;5.20;;
36725;SDS011;44936;52.086;5.150;2022-07-24T04:13:45;12.80;;;5.83;;
36725;SDS011;44936;52.086;5.150;2022-07-24T04:16:10;15.30;;;6.07;;
36725;SDS011;44936;52.086;5.150;2022-07-24T04:18:35;13.90;;;5.65;;
36725;SDS011;44936;52.086;5.150;2022-07-24T04:21:01;14.60;;;6.22;;
36725;SDS011;44936;52.086;5.150;2022-07-24T04:23:26;13.10;;;5.57;;
36725;SDS011;44936;52.086;5.150;2022-07-24T04:25:51;15.70;;;5.90;;
36725;SDS011;44936;52.086;5.150;2022-07-24T04:28:16;14.47;;;6.03;;
36725;SDS011;44936;52.086;5.150;2022-07-24T04:30:42;13.27;;;6.53;;
36725;SDS011;44936;52.086;5.150;2022-07-24T04:33:07;11.97;;;5.57;;
36725;SDS011;44936;52.086;5.150;2022-07-24T04:35:32;15.67;;;6.27;;
36725;SDS011;44936;52.086;5.150;2022-07-24T04:37:57;14.13;;;5.53;;
36725;SDS011;44936;52.086;5.150;2022-07-24T04:40:23;12.85;;;5.47;;
36725;SDS011;44936;52.086;5.150;2022-07-24T04:42:48;14.02;;;5.80;;
36725;SDS011;44936;52.086;5.150;2022-07-24T04:45:13;17.17;;;6.63;;
36725;SDS011;44936;52.086;5.150;2022-07-24T04:47:39;18.13;;;6.53;;
36725;SDS011;44936;52.086;5.150;2022-07-24T04:50:04;14.63;;;5.97;;
36725;SDS011;44936;52.086;5.150;2022-07-24T04:52:30;13.05;;;5.60;;
36725;SDS011;44936;52.086;5.150;2022-07-24T04:54:55;15.35;;;6.13;;
36725;SDS011;44936;52.086;5.150;2022-07-24T04:57:21;13.25;;;5.68;;
36725;SDS011;44936;52.086;5.150;2022-07-24T04:59:46;12.45;;;5.60;;
36725;SDS011;44936;52.086;5.150;2022-07-24T05:02:11;15.70;;;6.07;;
36725;SDS011;44936;52.086;5.150;2022-07-24T05:04:40;16.30;;;6.40;;
36725;SDS011;44936;52.086;5.150;2022-07-24T05:07:12;13.20;;;6.00;;
36725;SDS011;44936;52.086;5.150;2022-07-24T05:09:37;13.27;;;5.25;;
36725;SDS011;44936;52.086;5.150;2022-07-24T05:12:03;12.10;;;5.30;;
36725;SDS011;44936;52.086;5.150;2022-07-24T05:14:28;12.25;;;6.05;;
36725;SDS011;44936;52.086;5.150;2022-07-24T05:16:53;15.30;;;6.03;;
36725;SDS011;44936;52.086;5.150;2022-07-24T05:19:19;13.53;;;5.07;;
36725;SDS011;44936;52.086;5.150;2022-07-24T05:21:44;14.27;;;5.70;;
36725;SDS011;44936;52.086;5.150;2022-07-24T05:24:09;9.60;;;4.50;;
36725;SDS011;44936;52.086;5.150;2022-07-24T05:26:34;11.47;;;4.77;;
36725;SDS011;44936;52.086;5.150;2022-07-24T05:29:03;9.20;;;4.37;;
36725;SDS011;44936;52.086;5.150;2022-07-24T05:31:30;10.77;;;4.13;;
36725;SDS011;44936;52.086;5.150;2022-07-24T05:33:55;8.40;;;3.83;;
36725;SDS011;44936;52.086;5.150;2022-07-24T05:36:20;8.60;;;3.40;;
36725;SDS011;44936;52.086;5.150;2022-07-24T05:38:46;7.97;;;3.63;;
36725;SDS011;44936;52.086;5.150;2022-07-24T05:41:11;5.82;;;2.80;;
36725;SDS011;44936;52.086;5.150;2022-07-24T05:43:37;5.55;;;2.90;;
36725;SDS011;44936;52.086;5.150;2022-07-24T05:46:03;5.60;;;2.78;;
36725;SDS011;44936;52.086;5.150;2022-07-24T05:48:28;7.88;;;2.50;;
36725;SDS011;44936;52.086;5.150;2022-07-24T05:50:53;4.80;;;2.53;;
36725;SDS011;44936;52.086;5.150;2022-07-24T05:53:22;8.05;;;2.70;;
36725;SDS011;44936;52.086;5.150;2022-07-24T05:55:48;5.20;;;2.30;;
36725;SDS011;44936;52.086;5.150;2022-07-24T05:58:13;3.95;;;1.98;;
36725;SDS011;44936;52.086;5.150;2022-07-24T06:00:38;4.63;;;1.92;;
36725;SDS011;44936;52.086;5.150;2022-07-24T06:03:03;9.50;;;2.30;;
36725;SDS011;44936;52.086;5.150;2022-07-24T06:05:29;4.00;;;2.00;;
36725;SDS011;44936;52.086;5.150;2022-07-24T06:07:54;4.38;;;2.10;;
36725;SDS011;44936;52.086;5.150;2022-07-24T06:10:20;3.17;;;1.90;;
36725;SDS011;44936;52.086;5.150;2022-07-24T06:12:45;5.13;;;1.90;;
36725;SDS011;44936;52.086;5.150;2022-07-24T06:15:10;4.13;;;1.93;;
36725;SDS011;44936;52.086;5.150;2022-07-24T06:17:36;4.13;;;1.67;;
36725;SDS011;44936;52.086;5.150;2022-07-24T06:20:02;5.88;;;1.85;;
36725;SDS011;44936;52.086;5.150;2022-07-24T06:22:28;4.60;;;1.92;;
36725;SDS011;44936;52.086;5.150;2022-07-24T06:24:53;3.43;;;1.73;;
36725;SDS011;44936;52.086;5.150;2022-07-24T06:27:19;5.20;;;2.00;;
36725;SDS011;44936;52.086;5.150;2022-07-24T06:29:45;4.07;;;2.03;;
36725;SDS011;44936;52.086;5.150;2022-07-24T06:32:10;5.67;;;2.10;;
36725;SDS011;44936;52.086;5.150;2022-07-24T06:34:35;5.47;;;2.03;;
36725;SDS011;44936;52.086;5.150;2022-07-24T06:37:00;6.63;;;2.45;;
36725;SDS011;44936;52.086;5.150;2022-07-24T06:39:25;5.03;;;2.17;;
36725;SDS011;44936;52.086;5.150;2022-07-24T06:41:51;4.77;;;2.40;;
36725;SDS011;44936;52.086;5.150;2022-07-24T06:44:16;6.43;;;2.40;;
36725;SDS011;44936;52.086;5.150;2022-07-24T06:46:41;4.67;;;2.37;;
36725;SDS011;44936;52.086;5.150;2022-07-24T06:49:06;5.23;;;2.50;;
36725;SDS011;44936;52.086;5.150;2022-07-24T06:51:31;5.60;;;2.50;;
36725;SDS011;44936;52.086;5.150;2022-07-24T06:53:57;3.73;;;2.20;;
36725;SDS011;44936;52.086;5.150;2022-07-24T06:56:22;3.73;;;2.00;;
36725;SDS011;44936;52.086;5.150;2022-07-24T06:58:47;4.55;;;2.00;;
36725;SDS011;44936;52.086;5.150;2022-07-24T07:01:12;4.00;;;2.10;;
36725;SDS011;44936;52.086;5.150;2022-07-24T07:03:38;5.80;;;2.65;;
36725;SDS011;44936;52.086;5.150;2022-07-24T07:06:03;5.43;;;2.40;;
36725;SDS011;44936;52.086;5.150;2022-07-24T07:08:29;5.45;;;2.13;;
36725;SDS011;44936;52.086;5.150;2022-07-24T07:10:57;4.18;;;2.08;;
36725;SDS011;44936;52.086;5.150;2022-07-24T07:13:22;5.63;;;1.97;;
36725;SDS011;44936;52.086;5.150;2022-07-24T07:15:47;4.23;;;2.27;;
36725;SDS011;44936;52.086;5.150;2022-07-24T07:18:12;4.43;;;2.17;;
36725;SDS011;44936;52.086;5.150;2022-07-24T07:20:38;4.82;;;1.95;;
36725;SDS011;44936;52.086;5.150;2022-07-24T07:23:04;4.13;;;2.17;;
36725;SDS011;44936;52.086;5.150;2022-07-24T07:25:29;5.33;;;2.03;;
36725;SDS011;44936;52.086;5.150;2022-07-24T07:27:54;3.87;;;2.13;;
36725;SDS011;44936;52.086;5.150;2022-07-24T07:30:19;5.13;;;2.00;;
36725;SDS011;44936;52.086;5.150;2022-07-24T07:32:44;5.43;;;2.40;;
36725;SDS011;44936;52.086;5.150;2022-07-24T07:35:10;5.53;;;2.10;;
36725;SDS011;44936;52.086;5.150;2022-07-24T07:37:35;4.00;;;2.00;;
36725;SDS011;44936;52.086;5.150;2022-07-24T07:40:01;5.07;;;1.73;;
36725;SDS011;44936;52.086;5.150;2022-07-24T07:42:26;3.22;;;1.85;;
36725;SDS011;44936;52.086;5.150;2022-07-24T07:44:51;3.33;;;1.30;;
36725;SDS011;44936;52.086;5.150;2022-07-24T07:47:17;4.40;;;2.10;;
36725;SDS011;44936;52.086;5.150;2022-07-24T07:49:42;2.93;;;1.33;;
36725;SDS011;44936;52.086;5.150;2022-07-24T07:52:07;1.93;;;1.33;;
36725;SDS011;44936;52.086;5.150;2022-07-24T07:54:36;3.33;;;1.90;;
36725;SDS011;44936;52.086;5.150;2022-07-24T07:57:02;2.55;;;1.33;;
36725;SDS011;44936;52.086;5.150;2022-07-24T07:59:28;2.50;;;1.58;;
36725;SDS011;44936;52.086;5.150;2022-07-24T08:01:53;3.60;;;1.37;;
36725;SDS011;44936;52.086;5.150;2022-07-24T08:04:18;1.87;;;1.40;;
36725;SDS011;44936;52.086;5.150;2022-07-24T08:06:43;1.70;;;1.30;;
36725;SDS011;44936;52.086;5.150;2022-07-24T08:09:09;3.55;;;1.48;;
36725;SDS011;44936;52.086;5.150;2022-07-24T08:11:34;3.38;;;1.50;;
36725;SDS011;44936;52.086;5.150;2022-07-24T08:13:59;1.80;;;1.20;;
36725;SDS011;44936;52.086;5.150;2022-07-24T08:16:24;3.27;;;1.40;;
36725;SDS011;44936;52.086;5.150;2022-07-24T08:18:49;5.33;;;1.30;;
36725;SDS011;44936;52.086;5.150;2022-07-24T08:21:15;2.27;;;1.50;;
36725;SDS011;44936;52.086;5.150;2022-07-24T08:23:42;4.22;;;1.92;;
36725;SDS011;44936;52.086;5.150;2022-07-24T08:26:08;3.67;;;1.30;;
36725;SDS011;44936;52.086;5.150;2022-07-24T08:28:33;2.33;;;1.10;;
36725;SDS011;44936;52.086;5.150;2022-07-24T08:30:58;2.77;;;1.23;;
36725;SDS011;44936;52.086;5.150;2022-07-24T08:33:23;2.80;;;1.33;;
36725;SDS011;44936;52.086;5.150;2022-07-24T08:35:48;3.40;;;1.17;;
36725;SDS011;44936;52.086;5.150;2022-07-24T08:38:14;2.93;;;1.50;;
36725;SDS011;44936;52.086;5.150;2022-07-24T08:40:42;1.87;;;1.27;;
36725;SDS011;44936;52.086;5.150;2022-07-24T08:43:13;2.28;;;1.08;;
36725;SDS011;44936;52.086;5.150;2022-07-24T08:45:40;3.47;;;1.40;;
36725;SDS011;44936;52.086;5.150;2022-07-24T08:48:09;2.97;;;1.27;;
36725;SDS011;44936;52.086;5.150;2022-07-24T08:50:37;2.38;;;1.23;;
36725;SDS011;44936;52.086;5.150;2022-07-24T08:53:03;2.30;;;1.02;;
36725;SDS011;44936;52.086;5.150;2022-07-24T08:55:30;3.30;;;1.30;;
36725;SDS011;44936;52.086;5.150;2022-07-24T08:58:04;1.88;;;1.20;;
36725;SDS011;44936;52.086;5.150;2022-07-24T09:00:30;1.85;;;1.40;;
36725;SDS011;44936;52.086;5.150;2022-07-24T09:02:56;4.60;;;1.73;;
36725;SDS011;44936;52.086;5.150;2022-07-24T09:05:21;2.90;;;1.30;;
36725;SDS011;44936;52.086;5.150;2022-07-24T09:07:47;2.00;;;1.10;;
36725;SDS011;44936;52.086;5.150;2022-07-24T09:10:13;2.08;;;1.13;;
36725;SDS011;44936;52.086;5.150;2022-07-24T09:12:39;1.80;;;1.17;;
36725;SDS011;44936;52.086;5.150;2022-07-24T09:15:16;1.40;;;1.10;;
36725;SDS011;44936;52.086;5.150;2022-07-24T09:17:57;1.40;;;1.25;;
36725;SDS011;44936;52.086;5.150;2022-07-24T09:20:23;2.20;;;1.05;;
36725;SDS011;44936;52.086;5.150;2022-07-24T09:22:50;2.25;;;1.30;;
36725;SDS011;44936;52.086;5.150;2022-07-24T09:25:16;2.05;;;1.30;;
36725;SDS011;44936;52.086;5.150;2022-07-24T09:27:49;2.10;;;1.13;;
36725;SDS011;44936;52.086;5.150;2022-07-24T09:32:39;1.85;;;1.15;;
36725;SDS011;44936;52.086;5.150;2022-07-24T09:35:05;1.65;;;1.10;;
36725;SDS011;44936;52.086;5.150;2022-07-24T09:37:31;1.90;;;1.30;;
36725;SDS011;44936;52.086;5.150;2022-07-24T09:40:07;2.25;;;1.20;;
36725;SDS011;44936;52.086;5.150;2022-07-24T09:42:33;2.00;;;1.27;;
36725;SDS011;44936;52.086;5.150;2022-07-24T09:45:04;1.52;;;1.27;;
36725;SDS011;44936;52.086;5.150;2022-07-24T09:47:30;3.10;;;1.05;;
36725;SDS011;44936;52.086;5.150;2022-07-24T09:49:56;2.53;;;1.42;;
36725;SDS011;44936;52.086;5.150;2022-07-24T09:52:35;1.75;;;1.05;;
36725;SDS011;44936;52.086;5.150;2022-07-24T09:55:01;3.58;;;1.13;;
36725;SDS011;44936;52.086;5.150;2022-07-24T09:57:28;2.20;;;1.00;;
36725;SDS011;44936;52.086;5.150;2022-07-24T09:59:54;1.80;;;0.93;;
36725;SDS011;44936;52.086;5.150;2022-07-24T10:02:21;1.92;;;1.20;;
36725;SDS011;44936;52.086;5.150;2022-07-24T10:04:47;1.10;;;0.98;;
36725;SDS011;44936;52.086;5.150;2022-07-24T10:07:13;1.80;;;0.85;;
36725;SDS011;44936;52.086;5.150;2022-07-24T10:09:40;1.85;;;1.25;;
36725;SDS011;44936;52.086;5.150;2022-07-24T10:12:06;2.90;;;0.85;;
36725;SDS011;44936;52.086;5.150;2022-07-24T10:14:32;2.13;;;1.20;;
36725;SDS011;44936;52.086;5.150;2022-07-24T10:17:04;2.10;;;1.00;;
36725;SDS011;44936;52.086;5.150;2022-07-24T10:19:31;3.10;;;1.25;;
36725;SDS011;44936;52.086;5.150;2022-07-24T10:22:02;2.17;;;1.17;;
36725;SDS011;44936;52.086;5.150;2022-07-24T10:27:01;1.45;;;0.57;;
36725;SDS011;44936;52.086;5.150;2022-07-24T10:29:27;1.45;;;1.02;;
36725;SDS011;44936;52.086;5.150;2022-07-24T10:31:54;1.25;;;1.00;;
36725;SDS011;44936;52.086;5.150;2022-07-24T10:42:05;0.80;;;0.77;;
36725;SDS011;44936;52.086;5.150;2022-07-24T10:44:30;2.67;;;1.20;;
36725;SDS011;44936;52.086;5.150;2022-07-24T10:46:59;1.05;;;0.90;;
36725;SDS011;44936;52.086;5.150;2022-07-24T10:52:20;2.20;;;0.88;;
36725;SDS011;44936;52.086;5.150;2022-07-24T10:54:47;1.10;;;0.80;;
36725;SDS011;44936;52.086;5.150;2022-07-24T10:57:12;1.27;;;1.10;;
36725;SDS011;44936;52.086;5.150;2022-07-24T10:59:38;2.80;;;1.00;;
36725;SDS011;44936;52.086;5.150;2022-07-24T11:02:25;1.75;;;1.23;;
36725;SDS011;44936;52.086;5.150;2022-07-24T11:07:36;2.88;;;0.93;;
36725;SDS011;44936;52.086;5.150;2022-07-24T11:10:03;1.00;;;0.70;;
36725;SDS011;44936;52.086;5.150;2022-07-24T11:12:32;1.15;;;0.80;;
36725;SDS011;44936;52.086;5.150;2022-07-24T11:15:02;1.33;;;1.00;;
36725;SDS011;44936;52.086;5.150;2022-07-24T11:17:47;4.43;;;1.00;;
36725;SDS011;44936;52.086;5.150;2022-07-24T11:20:16;1.55;;;0.90;;
36725;SDS011;44936;52.086;5.150;2022-07-24T11:25:14;3.20;;;1.40;;
36725;SDS011;44936;52.086;5.150;2022-07-24T11:27:40;2.15;;;1.02;;
36725;SDS011;44936;52.086;5.150;2022-07-24T11:30:06;1.20;;;1.08;;
36725;SDS011;44936;52.086;5.150;2022-07-24T11:32:31;2.45;;;1.00;;
36725;SDS011;44936;52.086;5.150;2022-07-24T11:34:56;1.52;;;1.10;;
36725;SDS011;44936;52.086;5.150;2022-07-24T11:37:22;1.13;;;1.03;;
36725;SDS011;44936;52.086;5.150;2022-07-24T11:39:49;3.00;;;1.10;;
36725;SDS011;44936;52.086;5.150;2022-07-24T11:42:15;2.47;;;1.00;;
36725;SDS011;44936;52.086;5.150;2022-07-24T11:44:42;2.53;;;0.85;;
36725;SDS011;44936;52.086;5.150;2022-07-24T11:47:18;0.82;;;0.80;;
36725;SDS011;44936;52.086;5.150;2022-07-24T11:52:19;1.20;;;1.00;;
36725;SDS011;44936;52.086;5.150;2022-07-24T11:54:45;1.25;;;0.85;;
36725;SDS011;44936;52.086;5.150;2022-07-24T11:57:27;1.35;;;0.82;;
36725;SDS011;44936;52.086;5.150;2022-07-24T11:59:53;1.10;;;1.00;;
36725;SDS011;44936;52.086;5.150;2022-07-24T12:02:20;1.10;;;1.00;;
36725;SDS011;44936;52.086;5.150;2022-07-24T12:04:45;2.67;;;1.30;;
36725;SDS011;44936;52.086;5.150;2022-07-24T12:07:14;1.15;;;0.65;;
36725;SDS011;44936;52.086;5.150;2022-07-24T12:09:43;1.42;;;0.70;;
36725;SDS011;44936;52.086;5.150;2022-07-24T12:14:54;1.50;;;1.17;;
36725;SDS011;44936;52.086;5.150;2022-07-24T12:17:24;2.90;;;0.80;;
36725;SDS011;44936;52.086;5.150;2022-07-24T12:19:50;1.63;;;0.97;;
36725;SDS011;44936;52.086;5.150;2022-07-24T12:22:15;1.45;;;0.73;;
36725;SDS011;44936;52.086;5.150;2022-07-24T12:24:40;1.00;;;0.90;;
36725;SDS011;44936;52.086;5.150;2022-07-24T12:27:05;1.43;;;0.93;;
36725;SDS011;44936;52.086;5.150;2022-07-24T12:29:31;2.03;;;1.10;;
36725;SDS011;44936;52.086;5.150;2022-07-24T12:32:15;3.78;;;1.10;;
36725;SDS011;44936;52.086;5.150;2022-07-24T12:34:41;1.38;;;1.05;;
36725;SDS011;44936;52.086;5.150;2022-07-24T12:37:16;0.73;;;0.73;;
36725;SDS011;44936;52.086;5.150;2022-07-24T12:39:45;1.15;;;1.02;;
36725;SDS011;44936;52.086;5.150;2022-07-24T12:42:11;1.13;;;0.93;;
36725;SDS011;44936;52.086;5.150;2022-07-24T12:44:43;0.83;;;0.83;;
36725;SDS011;44936;52.086;5.150;2022-07-24T12:47:09;1.20;;;0.90;;
36725;SDS011;44936;52.086;5.150;2022-07-24T12:49:42;1.25;;;0.88;;
36725;SDS011;44936;52.086;5.150;2022-07-24T12:52:21;1.17;;;0.80;;
36725;SDS011;44936;52.086;5.150;2022-07-24T12:54:48;1.00;;;0.80;;
36725;SDS011;44936;52.086;5.150;2022-07-24T12:57:14;1.27;;;0.80;;
36725;SDS011;44936;52.086;5.150;2022-07-24T12:59:41;2.67;;;0.70;;
36725;SDS011;44936;52.086;5.150;2022-07-24T13:02:11;1.88;;;0.95;;
36725;SDS011;44936;52.086;5.150;2022-07-24T13:04:40;1.40;;;1.00;;
36725;SDS011;44936;52.086;5.150;2022-07-24T13:07:07;1.10;;;0.70;;
36725;SDS011;44936;52.086;5.150;2022-07-24T13:09:32;1.00;;;0.90;;
36725;SDS011;44936;52.086;5.150;2022-07-24T13:11:57;1.30;;;1.10;;
36725;SDS011;44936;52.086;5.150;2022-07-24T13:14:23;2.10;;;0.80;;
36725;SDS011;44936;52.086;5.150;2022-07-24T13:16:49;1.13;;;0.70;;
36725;SDS011;44936;52.086;5.150;2022-07-24T13:19:15;0.95;;;0.90;;
36725;SDS011;44936;52.086;5.150;2022-07-24T13:21:40;1.65;;;0.98;;
36725;SDS011;44936;52.086;5.150;2022-07-24T13:24:06;1.03;;;0.93;;
36725;SDS011;44936;52.086;5.150;2022-07-24T13:26:32;1.70;;;0.80;;
36725;SDS011;44936;52.086;5.150;2022-07-24T13:28:57;0.73;;;0.70;;
36725;SDS011;44936;52.086;5.150;2022-07-24T13:31:23;1.20;;;1.00;;
36725;SDS011;44936;52.086;5.150;2022-07-24T13:33:48;1.03;;;0.80;;
36725;SDS011;44936;52.086;5.150;2022-07-24T13:36:14;2.15;;;0.88;;
36725;SDS011;44936;52.086;5.150;2022-07-24T13:38:40;1.63;;;1.00;;
36725;SDS011;44936;52.086;5.150;2022-07-24T13:41:05;1.63;;;0.80;;
36725;SDS011;44936;52.086;5.150;2022-07-24T13:43:31;1.13;;;0.77;;
36725;SDS011;44936;52.086;5.150;2022-07-24T13:45:56;0.70;;;0.70;;
36725;SDS011;44936;52.086;5.150;2022-07-24T13:48:21;0.60;;;0.60;;
36725;SDS011;44936;52.086;5.150;2022-07-24T13:50:47;1.23;;;1.00;;
36725;SDS011;44936;52.086;5.150;2022-07-24T13:53:12;1.10;;;1.00;;
36725;SDS011;44936;52.086;5.150;2022-07-24T13:55:37;1.05;;;0.80;;
36725;SDS011;44936;52.086;5.150;2022-07-24T13:58:03;3.07;;;1.00;;
36725;SDS011;44936;52.086;5.150;2022-07-24T14:00:28;2.43;;;1.20;;
36725;SDS011;44936;52.086;5.150;2022-07-24T14:02:53;1.93;;;1.00;;
36725;SDS011;44936;52.086;5.150;2022-07-24T14:05:22;1.45;;;1.00;;
36725;SDS011;44936;52.086;5.150;2022-07-24T14:07:47;1.42;;;1.00;;
36725;SDS011;44936;52.086;5.150;2022-07-24T14:10:12;1.52;;;0.85;;
36725;SDS011;44936;52.086;5.150;2022-07-24T14:12:37;1.30;;;0.97;;
36725;SDS011;44936;52.086;5.150;2022-07-24T14:15:03;1.33;;;0.90;;
36725;SDS011;44936;52.086;5.150;2022-07-24T14:17:28;1.30;;;1.05;;
36725;SDS011;44936;52.086;5.150;2022-07-24T14:19:53;2.00;;;1.07;;
36725;SDS011;44936;52.086;5.150;2022-07-24T14:22:18;2.97;;;1.17;;
36725;SDS011;44936;52.086;5.150;2022-07-24T14:24:44;2.03;;;1.10;;
36725;SDS011;44936;52.086;5.150;2022-07-24T14:27:09;3.30;;;1.47;;
36725;SDS011;44936;52.086;5.150;2022-07-24T14:29:34;2.47;;;0.80;;
36725;SDS011;44936;52.086;5.150;2022-07-24T14:31:59;1.87;;;0.90;;
36725;SDS011;44936;52.086;5.150;2022-07-24T14:34:24;1.13;;;0.80;;
36725;SDS011;44936;52.086;5.150;2022-07-24T14:36:50;0.70;;;0.70;;
36725;SDS011;44936;52.086;5.150;2022-07-24T14:39:15;3.27;;;1.30;;
36725;SDS011;44936;52.086;5.150;2022-07-24T14:41:41;1.95;;;1.02;;
36725;SDS011;44936;52.086;5.150;2022-07-24T14:44:08;1.80;;;1.20;;
36725;SDS011;44936;52.086;5.150;2022-07-24T14:46:33;1.37;;;0.80;;
36725;SDS011;44936;52.086;5.150;2022-07-24T14:48:58;1.40;;;0.93;;
36725;SDS011;44936;52.086;5.150;2022-07-24T14:51:24;1.00;;;0.90;;
36725;SDS011;44936;52.086;5.150;2022-07-24T14:53:57;0.90;;;0.90;;
36725;SDS011;44936;52.086;5.150;2022-07-24T14:56:30;1.38;;;0.88;;
36725;SDS011;44936;52.086;5.150;2022-07-24T14:58:55;0.95;;;0.80;;
36725;SDS011;44936;52.086;5.150;2022-07-24T15:01:21;1.80;;;1.10;;
36725;SDS011;44936;52.086;5.150;2022-07-24T15:03:46;0.88;;;0.57;;
36725;SDS011;44936;52.086;5.150;2022-07-24T15:06:12;1.63;;;0.80;;